createdAt,value
2022-12-18T00:00:11.544Z,3.3
2022-12-18T00:01:11.537Z,3.3
2022-12-18T00:02:11.577Z,3.28
2022-12-18T00:03:11.429Z,3.28
2022-12-18T00:04:11.654Z,3.3
2022-12-18T00:05:11.764Z,3.28
2022-12-18T00:06:11.437Z,3.28
2022-12-18T00:07:11.458Z,3.28
2022-12-18T00:08:11.401Z,3.28
2022-12-18T00:09:11.227Z,3.28
2022-12-18T00:10:10.930Z,3.25
2022-12-18T00:11:10.963Z,3.25
2022-12-18T00:13:11.624Z,3.25
2022-12-18T00:14:11.494Z,3.25
2022-12-18T00:15:11.615Z,3.28
2022-12-18T00:16:11.160Z,3.28
2022-12-18T00:17:11.789Z,3.28
2022-12-18T00:18:13.795Z,3.25
2022-12-18T00:19:11.008Z,3.25
2022-12-18T00:20:13.346Z,3.23
2022-12-18T00:21:11.923Z,3.23
2022-12-18T00:22:11.009Z,3.21
2022-12-18T00:23:11.494Z,3.21
2022-12-18T00:24:11.443Z,3.18
2022-12-18T00:25:11.693Z,3.21
2022-12-18T00:26:11.475Z,3.18
2022-12-18T00:27:10.916Z,3.21
2022-12-18T00:28:11.272Z,3.23
2022-12-18T00:29:10.897Z,3.23
2022-12-18T00:30:11.387Z,3.21
2022-12-18T00:31:11.347Z,3.21
2022-12-18T00:32:11.405Z,3.21
2022-12-18T00:33:12.255Z,3.21
2022-12-18T00:34:11.990Z,3.21
2022-12-18T00:35:11.435Z,3.23
2022-12-18T00:36:11.194Z,3.23
2022-12-18T00:37:13.411Z,3.21
2022-12-18T00:38:10.360Z,3.21
2022-12-18T00:39:11.567Z,3.21
2022-12-18T00:40:11.150Z,3.21
2022-12-18T00:41:12.020Z,3.23
2022-12-18T00:42:11.287Z,3.21
2022-12-18T00:43:11.507Z,3.18
2022-12-18T00:44:11.363Z,3.21
2022-12-18T00:45:13.229Z,3.21
2022-12-18T00:46:12.002Z,3.21
2022-12-18T00:47:11.228Z,3.21
2022-12-18T00:48:11.559Z,3.23
2022-12-18T00:49:11.804Z,3.23
2022-12-18T00:50:11.853Z,3.25
2022-12-18T00:51:11.209Z,3.25
2022-12-18T00:52:11.249Z,3.25
2022-12-18T00:53:11.840Z,3.25
2022-12-18T00:54:11.947Z,3.25
2022-12-18T00:55:11.824Z,3.23
2022-12-18T00:56:11.121Z,3.23
2022-12-18T00:57:11.336Z,3.23
2022-12-18T00:58:12.256Z,3.23
2022-12-18T00:59:11.031Z,3.23
2022-12-18T01:00:11.797Z,3.23
2022-12-18T01:01:10.817Z,3.23
2022-12-18T01:02:11.040Z,3.23
2022-12-18T01:03:12.039Z,3.25
2022-12-18T01:04:11.418Z,3.25
2022-12-18T01:05:11.373Z,3.25
2022-12-18T01:06:11.374Z,3.23
2022-12-18T01:07:11.076Z,3.23
2022-12-18T01:08:11.453Z,3.25
2022-12-18T01:09:11.579Z,3.25
2022-12-18T01:10:11.398Z,3.25
2022-12-18T01:11:11.283Z,3.23
2022-12-18T01:12:11.335Z,3.23
2022-12-18T01:13:11.740Z,3.21
2022-12-18T01:14:11.318Z,3.21
2022-12-18T01:15:11.638Z,3.21
2022-12-18T01:16:11.523Z,3.23
2022-12-18T01:17:11.206Z,3.21
2022-12-18T01:18:11.650Z,3.21
2022-12-18T01:19:10.906Z,3.23
2022-12-18T01:20:11.105Z,3.23
2022-12-18T01:21:11.109Z,3.23
2022-12-18T01:22:11.016Z,3.23
2022-12-18T01:23:10.491Z,3.23
2022-12-18T01:24:10.913Z,3.21
2022-12-18T01:25:11.692Z,3.23
2022-12-18T01:26:11.214Z,3.21
2022-12-18T01:27:10.873Z,3.21
2022-12-18T01:28:10.877Z,3.21
2022-12-18T01:29:11.588Z,3.23
2022-12-18T01:30:11.570Z,3.21
2022-12-18T01:31:11.926Z,3.21
2022-12-18T01:32:11.461Z,3.23
2022-12-18T01:33:11.160Z,3.23
2022-12-18T01:34:11.314Z,3.23
2022-12-18T01:35:11.160Z,3.23
2022-12-18T01:36:10.879Z,3.25
2022-12-18T01:37:11.207Z,3.25
2022-12-18T01:38:12.473Z,3.23
2022-12-18T01:39:11.483Z,3.23
2022-12-18T01:40:11.145Z,3.21
2022-12-18T01:41:11.717Z,3.21
2022-12-18T01:42:12.384Z,3.21
2022-12-18T01:43:11.424Z,3.18
2022-12-18T01:44:10.878Z,3.21
2022-12-18T01:45:12.290Z,3.23
2022-12-18T01:46:12.036Z,3.23
2022-12-18T01:47:11.705Z,3.21
2022-12-18T01:48:12.071Z,3.21
2022-12-18T01:49:11.863Z,3.18
2022-12-18T01:50:11.042Z,3.18
2022-12-18T01:51:11.667Z,3.21
2022-12-18T01:52:12.702Z,3.21
2022-12-18T01:53:11.317Z,3.18
2022-12-18T01:54:11.690Z,3.18
2022-12-18T01:55:11.089Z,3.18
2022-12-18T01:56:11.657Z,3.21
2022-12-18T01:57:11.839Z,3.21
2022-12-18T01:58:11.049Z,3.21
2022-12-18T01:59:11.450Z,3.23
2022-12-18T02:00:12.469Z,3.21
2022-12-18T02:01:11.386Z,3.21
2022-12-18T02:02:11.804Z,3.21
2022-12-18T02:03:10.964Z,3.21
2022-12-18T02:04:11.567Z,3.21
2022-12-18T02:05:11.589Z,3.21
2022-12-18T02:06:10.948Z,3.21
2022-12-18T02:07:12.115Z,3.21
2022-12-18T02:08:09.870Z,3.21
2022-12-18T02:09:10.879Z,3.21
2022-12-18T02:10:11.301Z,3.21
2022-12-18T02:11:11.972Z,3.18
2022-12-18T02:12:12.376Z,3.18
2022-12-18T02:13:12.182Z,3.18
2022-12-18T02:14:11.049Z,3.18
2022-12-18T02:15:11.454Z,3.21
2022-12-18T02:16:11.623Z,3.21
2022-12-18T02:17:11.850Z,3.21
2022-12-18T02:18:10.959Z,3.18
2022-12-18T02:19:11.497Z,3.18
2022-12-18T02:20:11.393Z,3.18
2022-12-18T02:21:11.461Z,3.18
2022-12-18T02:22:11.725Z,3.18
2022-12-18T02:23:10.955Z,3.18
2022-12-18T02:24:10.914Z,3.21
2022-12-18T02:25:10.901Z,3.18
2022-12-18T02:26:11.489Z,3.21
2022-12-18T02:27:10.890Z,3.21
2022-12-18T02:28:11.480Z,3.23
2022-12-18T02:29:12.140Z,3.21
2022-12-18T02:30:11.514Z,3.21
2022-12-18T02:31:11.474Z,3.21
2022-12-18T02:32:11.717Z,3.21
2022-12-18T02:33:12.018Z,3.21
2022-12-18T02:34:11.774Z,3.21
2022-12-18T02:35:11.354Z,3.21
2022-12-18T02:36:11.237Z,3.21
2022-12-18T02:37:11.920Z,3.21
2022-12-18T02:38:11.585Z,3.21
2022-12-18T02:39:11.874Z,3.18
2022-12-18T02:40:11.429Z,3.16
2022-12-18T02:41:11.184Z,3.18
2022-12-18T02:42:12.014Z,3.18
2022-12-18T02:43:11.278Z,3.21
2022-12-18T02:44:11.240Z,3.18
2022-12-18T02:45:11.579Z,3.18
2022-12-18T02:46:11.533Z,3.18
2022-12-18T02:47:10.883Z,3.21
2022-12-18T02:48:12.243Z,3.21
2022-12-18T02:49:11.382Z,3.21
2022-12-18T02:50:11.075Z,3.23
2022-12-18T02:51:11.293Z,3.23
2022-12-18T02:52:11.556Z,3.23
2022-12-18T02:53:10.357Z,3.23
2022-12-18T02:54:11.651Z,3.21
2022-12-18T02:55:13.101Z,3.21
2022-12-18T02:56:11.384Z,3.21
2022-12-18T02:57:10.855Z,3.21
2022-12-18T02:58:11.615Z,3.21
2022-12-18T02:59:11.725Z,3.18
2022-12-18T03:00:10.921Z,3.18
2022-12-18T03:01:10.928Z,3.18
2022-12-18T03:02:11.001Z,3.16
2022-12-18T03:03:11.140Z,3.18
2022-12-18T03:04:11.518Z,3.18
2022-12-18T03:05:11.088Z,3.18
2022-12-18T03:06:10.898Z,3.16
2022-12-18T03:07:11.036Z,3.16
2022-12-18T03:08:10.954Z,3.16
2022-12-18T03:09:11.016Z,3.18
2022-12-18T03:10:11.332Z,3.16
2022-12-18T03:11:10.847Z,3.16
2022-12-18T03:12:10.876Z,3.16
2022-12-18T03:13:11.514Z,3.16
2022-12-18T03:14:12.593Z,3.16
2022-12-18T03:15:16.016Z,3.16
2022-12-18T03:16:11.603Z,3.16
2022-12-18T03:17:12.014Z,3.14
2022-12-18T03:18:11.617Z,3.14
2022-12-18T03:19:11.584Z,3.14
2022-12-18T03:20:11.845Z,3.11
2022-12-18T03:21:10.856Z,3.09
2022-12-18T03:22:10.951Z,3.11
2022-12-18T03:23:11.986Z,3.11
2022-12-18T03:24:11.678Z,3.09
2022-12-18T03:25:11.748Z,3.09
2022-12-18T03:26:11.338Z,3.07
2022-12-18T03:27:11.552Z,3.09
2022-12-18T03:28:10.851Z,3.09
2022-12-18T03:29:10.949Z,3.07
2022-12-18T03:30:11.992Z,3.07
2022-12-18T03:31:12.161Z,3.07
2022-12-18T03:32:12.018Z,3.05
2022-12-18T03:33:11.205Z,3.05
2022-12-18T03:34:12.019Z,3.05
2022-12-18T03:35:10.891Z,3.05
2022-12-18T03:36:10.845Z,3.02
2022-12-18T03:37:12.156Z,3.05
2022-12-18T03:38:10.873Z,3.02
2022-12-18T03:39:11.124Z,3.05
2022-12-18T03:40:13.215Z,3.05
2022-12-18T03:41:12.160Z,3.05
2022-12-18T03:42:10.861Z,3.05
2022-12-18T03:43:10.863Z,3.05
2022-12-18T03:44:11.368Z,3.05
2022-12-18T03:45:11.524Z,3.07
2022-12-18T03:46:11.568Z,3.07
2022-12-18T03:47:10.866Z,3.07
2022-12-18T03:48:11.431Z,3.07
2022-12-18T03:49:10.902Z,3.07
2022-12-18T03:50:12.863Z,3.07
2022-12-18T03:51:11.549Z,3.07
2022-12-18T03:52:12.048Z,3.07
2022-12-18T03:53:13.401Z,3.07
2022-12-18T03:54:11.131Z,3.05
2022-12-18T03:55:11.810Z,3.07
2022-12-18T03:56:10.901Z,3.05
2022-12-18T03:57:11.854Z,3.05
2022-12-18T03:58:10.859Z,3.07
2022-12-18T03:59:12.367Z,3.07
2022-12-18T04:01:11.030Z,3.05
2022-12-18T04:02:11.310Z,3.07
2022-12-18T04:03:11.025Z,3.07
2022-12-18T04:04:11.528Z,3.07
2022-12-18T04:05:11.901Z,3.05
2022-12-18T04:06:11.116Z,3.07
2022-12-18T04:07:11.164Z,3.05
2022-12-18T04:08:12.146Z,3.07
2022-12-18T04:09:12.122Z,3.07
2022-12-18T04:10:10.972Z,3.07
2022-12-18T04:11:11.467Z,3.07
2022-12-18T04:12:11.870Z,3.07
2022-12-18T04:13:10.839Z,3.07
2022-12-18T04:14:16.074Z,3.07
2022-12-18T04:15:12.138Z,3.05
2022-12-18T04:16:11.398Z,3.05
2022-12-18T04:17:10.843Z,3.07
2022-12-18T04:18:11.255Z,3.07
2022-12-18T04:19:11.225Z,3.07
2022-12-18T04:20:11.111Z,3.07
2022-12-18T04:21:11.355Z,3.05
2022-12-18T04:22:11.397Z,3.05
2022-12-18T04:23:10.841Z,3.05
2022-12-18T04:24:11.061Z,3.05
2022-12-18T04:25:12.536Z,3.05
2022-12-18T04:26:11.786Z,3.07
2022-12-18T04:27:11.147Z,3.07
2022-12-18T04:28:10.925Z,3.05
2022-12-18T04:29:10.464Z,3.05
2022-12-18T04:30:12.149Z,3.05
2022-12-18T04:31:12.246Z,3.07
2022-12-18T04:32:10.969Z,3.07
2022-12-18T04:33:11.713Z,3.07
2022-12-18T04:34:10.905Z,3.07
2022-12-18T04:35:11.473Z,3.05
2022-12-18T04:36:11.517Z,3.07
2022-12-18T04:37:11.318Z,3.07
2022-12-18T04:38:12.126Z,3.05
2022-12-18T04:39:11.516Z,3.07
2022-12-18T04:40:11.145Z,3.05
2022-12-18T04:41:11.805Z,3.05
2022-12-18T04:42:10.879Z,3.05
2022-12-18T04:43:11.880Z,3.05
2022-12-18T04:44:11.595Z,3.02
2022-12-18T04:45:11.425Z,3.05
2022-12-18T04:46:10.883Z,3.05
2022-12-18T04:47:11.166Z,3.05
2022-12-18T04:48:11.584Z,3.02
2022-12-18T04:49:10.832Z,3.02
2022-12-18T04:50:10.847Z,3.05
2022-12-18T04:51:11.929Z,3.05
2022-12-18T04:52:13.113Z,3.05
2022-12-18T04:53:12.040Z,3.02
2022-12-18T04:54:11.005Z,3.05
2022-12-18T04:55:12.268Z,3.05
2022-12-18T04:56:11.863Z,3.05
2022-12-18T04:57:11.348Z,3.02
2022-12-18T04:58:12.477Z,3.05
2022-12-18T04:59:11.966Z,3.05
2022-12-18T05:00:10.923Z,3.05
2022-12-18T05:01:11.302Z,3.05
2022-12-18T05:02:11.425Z,3.05
2022-12-18T05:03:11.643Z,3.02
2022-12-18T05:04:11.114Z,3.02
2022-12-18T05:05:11.331Z,3.05
2022-12-18T05:06:11.148Z,3.02
2022-12-18T05:08:10.986Z,3.02
2022-12-18T05:09:11.175Z,3.02
2022-12-18T05:10:11.264Z,3.02
2022-12-18T05:11:11.379Z,3.02
2022-12-18T05:12:11.741Z,3.02
2022-12-18T05:13:11.349Z,3.02
2022-12-18T05:14:11.139Z,3.02
2022-12-18T05:15:11.779Z,3.05
2022-12-18T05:16:11.163Z,3.05
2022-12-18T05:17:12.010Z,3.05
2022-12-18T05:18:11.206Z,3.02
2022-12-18T05:19:11.497Z,3.02
2022-12-18T05:20:11.519Z,3.05
2022-12-18T05:21:12.568Z,3.05
2022-12-18T05:22:12.439Z,3.02
2022-12-18T05:23:11.651Z,3.05
2022-12-18T05:24:10.983Z,3.05
2022-12-18T05:25:11.109Z,3.02
2022-12-18T05:26:10.841Z,3.02
2022-12-18T05:27:10.993Z,3.02
2022-12-18T05:28:10.815Z,3.05
2022-12-18T05:29:10.148Z,3.02
2022-12-18T05:30:11.271Z,3.02
2022-12-18T05:31:11.793Z,3.02
2022-12-18T05:32:11.322Z,3.02
2022-12-18T05:33:12.618Z,3.02
2022-12-18T05:34:10.821Z,3
2022-12-18T05:35:11.922Z,3
2022-12-18T05:36:11.831Z,3
2022-12-18T05:37:11.537Z,3
2022-12-18T05:38:10.942Z,3
2022-12-18T05:39:10.866Z,3
2022-12-18T05:40:11.585Z,3.02
2022-12-18T05:41:11.303Z,3.02
2022-12-18T05:42:11.600Z,3.02
2022-12-18T05:43:12.035Z,3.05
2022-12-18T05:44:12.291Z,3.05
2022-12-18T05:45:12.531Z,3.02
2022-12-18T05:46:10.884Z,3.02
2022-12-18T05:47:11.397Z,3.02
2022-12-18T05:48:10.974Z,3.02
2022-12-18T05:49:11.310Z,3.02
2022-12-18T05:50:11.439Z,3.05
2022-12-18T05:51:10.197Z,3.05
2022-12-18T05:52:11.206Z,3.05
2022-12-18T05:53:11.294Z,3.05
2022-12-18T05:54:10.864Z,3.05
2022-12-18T05:55:11.244Z,3.05
2022-12-18T05:56:11.398Z,3.02
2022-12-18T05:57:11.907Z,3.02
2022-12-18T05:58:11.193Z,3.02
2022-12-18T05:59:11.282Z,3.05
2022-12-18T06:00:11.593Z,3.05
2022-12-18T06:01:11.141Z,3.07
2022-12-18T06:02:11.265Z,3.07
2022-12-18T06:03:12.328Z,3.07
2022-12-18T06:04:11.046Z,3.05
2022-12-18T06:05:10.806Z,3.05
2022-12-18T06:06:11.427Z,3.07
2022-12-18T06:07:10.822Z,3.05
2022-12-18T06:08:10.819Z,3.05
2022-12-18T06:09:11.251Z,3.05
2022-12-18T06:10:11.698Z,3.07
2022-12-18T06:11:11.082Z,3.07
2022-12-18T06:12:10.984Z,3.07
2022-12-18T06:13:10.268Z,3.07
2022-12-18T06:14:11.688Z,3.09
2022-12-18T06:16:11.223Z,3.09
2022-12-18T06:17:11.669Z,3.09
2022-12-18T06:18:11.921Z,3.09
2022-12-18T06:19:11.360Z,3.07
2022-12-18T06:20:12.036Z,3.09
2022-12-18T06:21:11.500Z,3.07
2022-12-18T06:22:10.955Z,3.07
2022-12-18T06:23:11.316Z,3.05
2022-12-18T06:24:10.806Z,3.05
2022-12-18T06:25:12.164Z,3.05
2022-12-18T06:26:10.994Z,3.05
2022-12-18T06:27:10.808Z,3.05
2022-12-18T06:28:11.967Z,3.05
2022-12-18T06:29:12.267Z,3.05
2022-12-18T06:30:11.284Z,3.05
2022-12-18T06:31:10.954Z,3.05
2022-12-18T06:32:11.947Z,3.05
2022-12-18T06:33:11.013Z,3.05
2022-12-18T06:34:12.155Z,3.05
2022-12-18T06:35:10.811Z,3.05
2022-12-18T06:36:11.156Z,3.05
2022-12-18T06:37:10.993Z,3.07
2022-12-18T06:38:11.239Z,3.05
2022-12-18T06:39:10.905Z,3.07
2022-12-18T06:40:10.953Z,3.07
2022-12-18T06:41:10.812Z,3.07
2022-12-18T06:42:10.924Z,3.05
2022-12-18T06:43:11.527Z,3.05
2022-12-18T06:44:11.785Z,3.07
2022-12-18T06:45:11.592Z,3.07
2022-12-18T06:46:10.420Z,3.07
2022-12-18T06:47:11.678Z,3.07
2022-12-18T06:48:11.327Z,3.07
2022-12-18T06:49:10.796Z,3.07
2022-12-18T06:50:11.208Z,3.07
2022-12-18T06:51:12.523Z,3.07
2022-12-18T06:52:10.939Z,3.05
2022-12-18T06:53:11.343Z,3.02
2022-12-18T06:54:10.864Z,3.05
2022-12-18T06:55:11.350Z,3.07
2022-12-18T06:56:11.428Z,3.11
2022-12-18T06:57:11.381Z,3.11
2022-12-18T06:58:11.867Z,3.09
2022-12-18T06:59:11.643Z,3.09
2022-12-18T07:00:11.957Z,3.07
2022-12-18T07:01:11.767Z,3.07
2022-12-18T07:02:11.818Z,3.05
2022-12-18T07:03:11.263Z,3.05
2022-12-18T07:04:11.422Z,3.05
2022-12-18T07:05:11.302Z,3.05
2022-12-18T07:06:11.593Z,3.02
2022-12-18T07:07:10.820Z,3.05
2022-12-18T07:08:10.136Z,3.02
2022-12-18T07:09:11.777Z,3.02
2022-12-18T07:10:10.845Z,3.02
2022-12-18T07:11:11.367Z,3.02
2022-12-18T07:12:11.631Z,3.02
2022-12-18T07:13:11.584Z,3.02
2022-12-18T07:14:11.206Z,3.02
2022-12-18T07:15:11.338Z,3.02
2022-12-18T07:16:16.231Z,3.02
2022-12-18T07:17:11.622Z,3.02
2022-12-18T07:18:10.900Z,3.02
2022-12-18T07:19:11.324Z,3.02
2022-12-18T07:20:11.707Z,3.02
2022-12-18T07:21:10.804Z,3.02
2022-12-18T07:23:10.956Z,3.05
2022-12-18T07:24:11.046Z,3.05
2022-12-18T07:25:11.002Z,3.05
2022-12-18T07:26:11.385Z,3.05
2022-12-18T07:27:11.606Z,3.07
2022-12-18T07:28:15.732Z,3.07
2022-12-18T07:29:11.448Z,3.09
2022-12-18T07:30:11.001Z,3.09
2022-12-18T07:31:11.258Z,3.09
2022-12-18T07:32:12.804Z,3.09
2022-12-18T07:33:11.842Z,3.09
2022-12-18T07:34:10.795Z,3.09
2022-12-18T07:35:10.797Z,3.09
2022-12-18T07:36:10.875Z,3.09
2022-12-18T07:37:10.804Z,3.09
2022-12-18T07:38:10.795Z,3.09
2022-12-18T07:39:10.930Z,3.09
2022-12-18T07:40:11.075Z,3.09
2022-12-18T07:41:11.694Z,3.09
2022-12-18T07:42:11.280Z,3.11
2022-12-18T07:43:11.027Z,3.11
2022-12-18T07:44:09.764Z,3.11
2022-12-18T07:45:11.573Z,3.11
2022-12-18T07:46:13.160Z,3.14
2022-12-18T07:47:12.318Z,3.11
2022-12-18T07:48:11.458Z,3.11
2022-12-18T07:49:11.231Z,3.14
2022-12-18T07:50:10.976Z,3.14
2022-12-18T07:51:10.894Z,3.16
2022-12-18T07:52:11.204Z,3.14
2022-12-18T07:53:11.725Z,3.14
2022-12-18T07:54:11.708Z,3.11
2022-12-18T07:55:11.034Z,3.09
2022-12-18T07:56:29.013Z,3.11
2022-12-18T07:57:33.748Z,3.11
2022-12-18T07:58:11.150Z,3.14
2022-12-18T07:59:11.299Z,3.16
2022-12-18T08:00:10.972Z,3.18
2022-12-18T08:01:11.989Z,3.16
2022-12-18T08:02:12.332Z,3.18
2022-12-18T08:03:11.693Z,3.21
2022-12-18T08:04:11.100Z,3.21
2022-12-18T08:05:11.107Z,3.21
2022-12-18T08:06:10.106Z,3.16
2022-12-18T08:07:11.571Z,3.18
2022-12-18T08:08:11.910Z,3.16
2022-12-18T08:09:11.786Z,3.18
2022-12-18T08:10:11.026Z,3.21
2022-12-18T08:11:11.578Z,3.21
2022-12-18T08:12:10.852Z,3.21
2022-12-18T08:13:11.190Z,3.23
2022-12-18T08:14:11.428Z,3.21
2022-12-18T08:15:10.945Z,3.18
2022-12-18T08:16:11.280Z,3.21
2022-12-18T08:17:11.385Z,3.23
2022-12-18T08:18:14.282Z,3.25
2022-12-18T08:19:11.083Z,3.3
2022-12-18T08:20:11.379Z,3.28
2022-12-18T08:21:10.784Z,3.3
2022-12-18T08:22:11.524Z,3.3
2022-12-18T08:23:11.209Z,3.32
2022-12-18T08:24:11.066Z,3.35
2022-12-18T08:25:11.492Z,3.35
2022-12-18T08:26:11.374Z,3.35
2022-12-18T08:27:28.847Z,3.37
2022-12-18T08:28:10.572Z,3.4
2022-12-18T08:30:11.043Z,3.4
2022-12-18T08:31:11.573Z,3.4
2022-12-18T08:32:12.395Z,3.4
2022-12-18T08:33:11.748Z,3.4
2022-12-18T08:34:11.644Z,3.42
2022-12-18T08:35:10.806Z,3.47
2022-12-18T08:36:11.166Z,3.45
2022-12-18T08:37:11.185Z,3.45
2022-12-18T08:38:11.586Z,3.45
2022-12-18T08:39:10.778Z,3.5
2022-12-18T08:40:11.620Z,3.5
2022-12-18T08:41:11.539Z,3.5
2022-12-18T08:42:11.725Z,3.5
2022-12-18T08:43:11.257Z,3.5
2022-12-18T08:44:10.919Z,3.52
2022-12-18T08:45:11.531Z,3.55
2022-12-18T08:46:10.812Z,3.55
2022-12-18T08:47:11.899Z,3.52
2022-12-18T08:48:11.538Z,3.55
2022-12-18T08:49:11.144Z,3.55
2022-12-18T08:50:10.785Z,3.57
2022-12-18T08:51:10.901Z,3.57
2022-12-18T08:52:10.867Z,3.6
2022-12-18T08:53:11.228Z,3.6
2022-12-18T08:54:11.254Z,3.62
2022-12-18T08:55:10.811Z,3.62
2022-12-18T08:56:10.785Z,3.65
2022-12-18T08:57:11.297Z,3.68
2022-12-18T08:58:11.533Z,3.68
2022-12-18T08:59:18.850Z,3.65
2022-12-18T09:00:10.800Z,3.65
2022-12-18T09:01:11.135Z,3.68
2022-12-18T09:02:12.027Z,3.68
2022-12-18T09:03:11.226Z,3.7
2022-12-18T09:04:10.926Z,3.7
2022-12-18T09:05:10.988Z,3.73
2022-12-18T09:06:10.760Z,3.76
2022-12-18T09:07:11.634Z,3.76
2022-12-18T09:08:10.790Z,3.76
2022-12-18T09:09:11.544Z,3.76
2022-12-18T09:10:10.543Z,3.78
2022-12-18T09:11:11.627Z,3.78
2022-12-18T09:12:12.106Z,3.78
2022-12-18T09:13:11.704Z,3.84
2022-12-18T09:14:10.795Z,3.81
2022-12-18T09:15:11.395Z,3.84
2022-12-18T09:16:11.436Z,3.84
2022-12-18T09:17:11.715Z,3.86
2022-12-18T09:18:11.206Z,3.89
2022-12-18T09:19:11.460Z,3.89
2022-12-18T09:20:10.848Z,3.89
2022-12-18T09:21:11.575Z,3.89
2022-12-18T09:22:10.787Z,3.92
2022-12-18T09:23:11.332Z,3.92
2022-12-18T09:24:11.185Z,3.92
2022-12-18T09:25:11.373Z,3.89
2022-12-18T09:26:11.406Z,3.89
2022-12-18T09:27:11.069Z,3.89
2022-12-18T09:28:13.188Z,3.89
2022-12-18T09:29:12.158Z,3.92
2022-12-18T09:30:11.459Z,3.92
2022-12-18T09:31:11.079Z,3.92
2022-12-18T09:32:10.843Z,3.86
2022-12-18T09:33:11.088Z,3.89
2022-12-18T09:34:11.353Z,3.92
2022-12-18T09:35:11.165Z,3.92
2022-12-18T09:36:11.687Z,3.95
2022-12-18T09:37:11.710Z,3.98
2022-12-18T09:38:11.186Z,4
2022-12-18T09:39:10.994Z,4
2022-12-18T09:40:10.774Z,4
2022-12-18T09:41:11.324Z,4.03
2022-12-18T09:42:11.528Z,4.03
2022-12-18T09:43:10.948Z,4.09
2022-12-18T09:44:11.516Z,4.12
2022-12-18T09:45:11.121Z,4.15
2022-12-18T09:46:11.157Z,4.18
2022-12-18T09:47:11.055Z,4.21
2022-12-18T09:48:12.020Z,4.21
2022-12-18T09:49:10.753Z,4.18
2022-12-18T09:50:17.072Z,4.21
2022-12-18T09:51:11.248Z,4.21
2022-12-18T09:52:11.169Z,4.24
2022-12-18T09:53:11.216Z,4.27
2022-12-18T09:54:11.894Z,4.24
2022-12-18T09:55:09.743Z,4.27
2022-12-18T09:56:10.857Z,4.24
2022-12-18T09:57:09.628Z,4.21
2022-12-18T09:58:11.810Z,4.24
2022-12-18T09:59:10.994Z,4.21
2022-12-18T10:00:10.987Z,4.24
2022-12-18T10:01:12.238Z,4.27
2022-12-18T10:02:11.617Z,4.33
2022-12-18T10:03:11.124Z,4.33
2022-12-18T10:04:11.271Z,4.36
2022-12-18T10:05:11.721Z,4.36
2022-12-18T10:06:11.187Z,4.33
2022-12-18T10:07:11.535Z,4.33
2022-12-18T10:08:12.038Z,4.36
2022-12-18T10:09:11.109Z,4.39
2022-12-18T10:10:10.780Z,4.39
2022-12-18T10:11:11.306Z,4.42
2022-12-18T10:12:11.014Z,4.36
2022-12-18T10:13:11.305Z,4.36
2022-12-18T10:14:11.218Z,4.36
2022-12-18T10:15:09.676Z,4.39
2022-12-18T10:16:11.551Z,4.39
2022-12-18T10:17:11.376Z,4.39
2022-12-18T10:18:11.411Z,4.39
2022-12-18T10:19:12.047Z,4.39
2022-12-18T10:20:11.389Z,4.45
2022-12-18T10:21:10.759Z,4.42
2022-12-18T10:22:09.728Z,4.45
2022-12-18T10:23:11.397Z,4.45
2022-12-18T10:24:11.601Z,4.45
2022-12-18T10:25:11.611Z,4.39
2022-12-18T10:26:11.480Z,4.42
2022-12-18T10:27:11.812Z,4.42
2022-12-18T10:28:10.782Z,4.45
2022-12-18T10:29:10.089Z,4.45
2022-12-18T10:30:11.380Z,4.48
2022-12-18T10:31:11.747Z,4.51
2022-12-18T10:32:10.750Z,4.54
2022-12-18T10:33:11.059Z,4.51
2022-12-18T10:34:11.220Z,4.51
2022-12-18T10:35:11.196Z,4.47
2022-12-18T10:36:11.244Z,4.49
2022-12-18T10:37:11.314Z,4.47
2022-12-18T10:38:11.124Z,4.48
2022-12-18T10:39:11.146Z,4.48
2022-12-18T10:40:12.501Z,4.53
2022-12-18T10:41:11.724Z,4.49
2022-12-18T10:43:10.816Z,4.57
2022-12-18T10:44:11.384Z,4.51
2022-12-18T10:45:11.255Z,4.51
2022-12-18T10:46:11.242Z,4.48
2022-12-18T10:47:12.085Z,4.51
2022-12-18T10:49:11.303Z,4.45
2022-12-18T10:50:10.960Z,4.45
2022-12-18T10:51:12.620Z,4.46
2022-12-18T10:52:11.045Z,4.55
2022-12-18T10:53:11.478Z,4.51
2022-12-18T10:54:11.024Z,4.53
2022-12-18T10:55:11.803Z,4.47
2022-12-18T10:56:11.210Z,4.46
2022-12-18T10:57:11.814Z,4.46
2022-12-18T10:58:11.981Z,4.47
2022-12-18T10:59:12.005Z,4.52
2022-12-18T11:00:11.515Z,4.49
2022-12-18T11:01:12.133Z,4.49
2022-12-18T11:02:11.706Z,4.53
2022-12-18T11:03:11.176Z,4.51
2022-12-18T11:04:11.376Z,4.56
2022-12-18T11:05:10.752Z,4.53
2022-12-18T11:06:10.770Z,4.52
2022-12-18T11:07:10.773Z,4.47
2022-12-18T11:08:10.749Z,4.46
2022-12-18T11:09:13.947Z,4.47
2022-12-18T11:10:11.530Z,4.47
2022-12-18T11:11:10.846Z,4.44
2022-12-18T11:12:10.740Z,4.44
2022-12-18T11:13:10.733Z,4.49
2022-12-18T11:14:11.270Z,4.45
2022-12-18T11:15:11.089Z,4.49
2022-12-18T11:16:11.754Z,4.53
2022-12-18T11:17:27.226Z,4.5
2022-12-18T11:18:11.530Z,4.41
2022-12-18T11:19:11.652Z,4.44
2022-12-18T11:20:11.221Z,4.44
2022-12-18T11:21:10.814Z,4.48
2022-12-18T11:22:11.161Z,4.44
2022-12-18T11:23:10.833Z,4.43
2022-12-18T11:24:11.907Z,4.4
2022-12-18T11:25:35.953Z,4.41
2022-12-18T11:26:12.041Z,4.4
2022-12-18T11:27:11.051Z,4.42
2022-12-18T11:28:10.996Z,4.43
2022-12-18T11:29:11.510Z,4.41
2022-12-18T11:30:11.426Z,4.45
2022-12-18T11:31:11.506Z,4.44
2022-12-18T11:32:12.233Z,4.39
2022-12-18T11:33:11.353Z,4.42
2022-12-18T11:34:34.183Z,4.39
2022-12-18T11:35:11.614Z,4.43
2022-12-18T11:36:11.896Z,4.49
2022-12-18T11:37:11.124Z,4.5
2022-12-18T11:38:11.580Z,4.4
2022-12-18T11:39:10.737Z,4.42
2022-12-18T11:40:11.138Z,4.49
2022-12-18T11:41:10.974Z,4.43
2022-12-18T11:42:11.191Z,4.44
2022-12-18T11:43:11.807Z,4.42
2022-12-18T11:44:11.292Z,4.34
2022-12-18T11:45:10.746Z,4.38
2022-12-18T11:46:16.119Z,4.37
2022-12-18T11:47:11.407Z,4.44
2022-12-18T11:48:11.735Z,4.45
2022-12-18T11:49:11.976Z,4.44
2022-12-18T11:50:10.083Z,4.37
2022-12-18T11:51:11.313Z,4.36
2022-12-18T11:52:10.833Z,4.36
2022-12-18T11:53:11.511Z,4.4
2022-12-18T11:54:10.933Z,4.31
2022-12-18T11:55:11.680Z,4.33
2022-12-18T11:56:11.292Z,4.38
2022-12-18T11:57:11.167Z,4.39
2022-12-18T11:58:10.940Z,4.41
2022-12-18T11:59:11.570Z,4.38
2022-12-18T12:00:10.733Z,4.34
2022-12-18T12:01:11.521Z,4.34
2022-12-18T12:02:12.058Z,4.35
2022-12-18T12:03:11.134Z,4.44
2022-12-18T12:04:11.391Z,4.44
2022-12-18T12:05:12.036Z,4.42
2022-12-18T12:06:11.869Z,4.4
2022-12-18T12:07:11.173Z,4.41
2022-12-18T12:08:11.073Z,4.49
2022-12-18T12:09:11.405Z,4.44
2022-12-18T12:10:11.361Z,4.4
2022-12-18T12:11:11.289Z,4.33
2022-12-18T12:12:11.266Z,4.33
2022-12-18T12:13:10.692Z,4.39
2022-12-18T12:14:11.387Z,4.38
2022-12-18T12:15:11.446Z,4.4
2022-12-18T12:16:11.569Z,4.39
2022-12-18T12:17:11.363Z,4.38
2022-12-18T12:18:11.806Z,4.42
2022-12-18T12:19:11.202Z,4.43
2022-12-18T12:20:11.439Z,4.45
2022-12-18T12:21:10.766Z,4.43
2022-12-18T12:22:10.730Z,4.41
2022-12-18T12:23:11.981Z,4.42
2022-12-18T12:24:11.610Z,4.45
2022-12-18T12:25:10.726Z,4.45
2022-12-18T12:26:10.894Z,4.45
2022-12-18T12:27:12.012Z,4.48
2022-12-18T12:28:11.621Z,4.5
2022-12-18T12:29:12.643Z,4.42
2022-12-18T12:30:11.330Z,4.4
2022-12-18T12:31:11.547Z,4.39
2022-12-18T12:32:11.845Z,4.39
2022-12-18T12:33:11.790Z,4.36
2022-12-18T12:34:11.469Z,4.39
2022-12-18T12:35:11.009Z,4.39
2022-12-18T12:36:11.613Z,4.39
2022-12-18T12:37:11.276Z,4.39
2022-12-18T12:38:11.108Z,4.36
2022-12-18T12:39:11.124Z,4.36
2022-12-18T12:40:40.973Z,4.36
2022-12-18T12:41:11.488Z,4.33
2022-12-18T12:42:11.148Z,4.36
2022-12-18T12:43:10.800Z,4.33
2022-12-18T12:44:11.194Z,4.33
2022-12-18T12:45:10.759Z,4.33
2022-12-18T12:46:11.260Z,4.36
2022-12-18T12:47:10.812Z,4.33
2022-12-18T12:48:11.379Z,4.36
2022-12-18T12:49:11.236Z,4.36
2022-12-18T12:50:11.311Z,4.33
2022-12-18T12:51:11.477Z,4.33
2022-12-18T12:52:12.365Z,4.33
2022-12-18T12:53:11.792Z,4.33
2022-12-18T12:54:11.031Z,4.33
2022-12-18T12:55:14.698Z,4.36
2022-12-18T12:56:12.571Z,4.33
2022-12-18T12:57:11.157Z,4.33
2022-12-18T12:58:09.645Z,4.3
2022-12-18T12:59:10.784Z,4.27
2022-12-18T13:00:13.309Z,4.3
2022-12-18T13:01:11.128Z,4.27
2022-12-18T13:02:10.888Z,4.3
2022-12-18T13:03:11.505Z,4.27
2022-12-18T13:04:11.341Z,4.3
2022-12-18T13:05:11.164Z,4.33
2022-12-18T13:06:11.109Z,4.33
2022-12-18T13:07:10.883Z,4.33
2022-12-18T13:08:11.008Z,4.33
2022-12-18T13:09:11.252Z,4.3
2022-12-18T13:10:11.503Z,4.3
2022-12-18T13:11:11.641Z,4.3
2022-12-18T13:12:11.460Z,4.33
2022-12-18T13:13:11.793Z,4.33
2022-12-18T13:14:11.201Z,4.3
2022-12-18T13:15:11.863Z,4.3
2022-12-18T13:16:11.165Z,4.3
2022-12-18T13:17:11.299Z,4.33
2022-12-18T13:18:10.891Z,4.36
2022-12-18T13:19:10.759Z,4.36
2022-12-18T13:20:10.200Z,4.36
2022-12-18T13:21:11.976Z,4.36
2022-12-18T13:22:10.840Z,4.36
2022-12-18T13:23:11.106Z,4.3
2022-12-18T13:24:11.234Z,4.33
2022-12-18T13:25:11.625Z,4.33
2022-12-18T13:26:10.723Z,4.33
2022-12-18T13:27:11.719Z,4.33
2022-12-18T13:28:10.999Z,4.3